createdAt,value
2019-04-25T00:00:05.585Z,0.00
2019-04-25T00:01:05.766Z,0.00
2019-04-25T00:02:05.960Z,0.00
2019-04-25T00:03:06.156Z,0.00
2019-04-25T00:04:06.349Z,0.00
2019-04-25T00:05:06.531Z,0.00
2019-04-25T00:06:06.734Z,0.00
2019-04-25T00:07:06.916Z,0.00
2019-04-25T00:08:07.104Z,0.00
2019-04-25T00:09:07.296Z,0.00
2019-04-25T00:10:07.479Z,0.00
2019-04-25T00:11:07.666Z,0.00
2019-04-25T00:12:07.852Z,0.00
2019-04-25T00:13:08.044Z,0.00
2019-04-25T00:14:08.235Z,0.00
2019-04-25T00:15:08.428Z,0.00
2019-04-25T00:16:08.613Z,0.00
2019-04-25T00:17:08.807Z,0.00
2019-04-25T00:18:08.996Z,0.00
2019-04-25T00:19:09.183Z,0.00
2019-04-25T00:20:09.365Z,0.00
2019-04-25T00:21:09.552Z,0.00
2019-04-25T00:22:09.745Z,0.00
2019-04-25T00:23:11.682Z,0.00
2019-04-25T00:24:10.121Z,0.00
2019-04-25T00:25:15.976Z,0.00
2019-04-25T00:26:11.342Z,0.00
2019-04-25T00:27:11.764Z,0.00
2019-04-25T00:28:11.665Z,0.00
2019-04-25T00:29:11.053Z,0.00
2019-04-25T00:30:11.352Z,0.00
2019-04-25T00:31:11.990Z,0.00
2019-04-25T00:32:11.753Z,0.00
2019-04-25T00:33:11.802Z,0.00
2019-04-25T00:34:12.150Z,0.00
2019-04-25T00:35:12.177Z,0.00
2019-04-25T00:36:12.374Z,0.00
2019-04-25T00:37:14.008Z,0.00
2019-04-25T00:38:12.742Z,0.00
2019-04-25T00:39:12.927Z,0.00
2019-04-25T00:40:13.558Z,0.00
2019-04-25T00:41:13.305Z,0.00
2019-04-25T00:42:13.489Z,0.00
2019-04-25T00:43:13.684Z,0.00
2019-04-25T00:44:13.869Z,0.00
2019-04-25T00:45:14.182Z,0.00
2019-04-25T00:46:14.238Z,0.00
2019-04-25T00:47:14.427Z,0.00
2019-04-25T00:48:14.625Z,0.00
2019-04-25T00:49:14.818Z,0.00
2019-04-25T00:50:15.004Z,0.00
2019-04-25T00:51:15.186Z,0.00
2019-04-25T00:52:15.370Z,0.00
2019-04-25T00:53:15.557Z,0.00
2019-04-25T00:54:15.744Z,0.00
2019-04-25T00:55:26.197Z,0.00
2019-04-25T00:56:16.125Z,0.00
2019-04-25T00:57:16.320Z,0.00
2019-04-25T00:58:16.510Z,0.00
2019-04-25T00:59:16.691Z,0.00
2019-04-25T01:00:16.855Z,0.00
2019-04-25T01:02:59.751Z,0.00
2019-04-25T01:03:59.935Z,0.00
2019-04-25T01:05:01.685Z,0.00
2019-04-25T01:06:03.442Z,0.00
2019-04-25T01:07:01.477Z,0.00
2019-04-25T01:08:02.152Z,0.00
2019-04-25T01:09:01.509Z,0.00
2019-04-25T01:10:02.482Z,0.00
2019-04-25T01:11:01.720Z,0.00
2019-04-25T01:12:03.848Z,0.00
2019-04-25T01:13:03.087Z,0.00
2019-04-25T01:14:02.207Z,0.00
2019-04-25T01:15:01.992Z,0.00
2019-04-25T01:16:04.024Z,0.00
2019-04-25T01:17:02.355Z,0.00
2019-04-25T01:18:02.538Z,0.00
2019-04-25T01:19:03.525Z,0.00
2019-04-25T01:20:04.165Z,0.00
2019-04-25T01:21:04.464Z,0.00
2019-04-25T01:22:03.835Z,0.00
2019-04-25T01:23:03.773Z,0.00
2019-04-25T01:24:04.327Z,0.00
2019-04-25T01:25:03.909Z,0.00
2019-04-25T01:26:04.039Z,0.00
2019-04-25T01:27:05.376Z,0.00
2019-04-25T01:28:04.409Z,0.00
2019-04-25T01:29:04.597Z,0.00
2019-04-25T01:30:06.140Z,0.00
2019-04-25T01:31:04.985Z,0.00
2019-04-25T01:32:05.147Z,0.00
2019-04-25T01:33:05.343Z,0.00
2019-04-25T01:34:05.523Z,0.00
2019-04-25T01:35:05.721Z,0.00
2019-04-25T01:36:05.897Z,0.00
2019-04-25T01:37:06.078Z,0.00
2019-04-25T01:38:06.267Z,0.00
2019-04-25T01:39:06.456Z,0.00
2019-04-25T01:40:06.642Z,0.00
2019-04-25T01:41:06.828Z,0.00
2019-04-25T01:42:07.010Z,0.00
2019-04-25T01:43:07.197Z,0.00
2019-04-25T01:44:07.381Z,0.00
2019-04-25T01:45:07.572Z,0.00
2019-04-25T01:46:07.765Z,0.00
2019-04-25T01:47:07.943Z,0.00
2019-04-25T01:48:08.147Z,0.00
2019-04-25T01:49:08.313Z,0.00
2019-04-25T01:50:08.499Z,0.00
2019-04-25T01:51:08.680Z,0.00
2019-04-25T01:52:08.865Z,0.00
2019-04-25T01:53:09.055Z,0.00
2019-04-25T01:54:09.261Z,0.00
2019-04-25T01:55:09.428Z,0.00
2019-04-25T01:56:09.615Z,0.00
2019-04-25T01:57:09.799Z,0.00
2019-04-25T01:58:09.985Z,0.00
2019-04-25T01:59:10.177Z,0.00
2019-04-25T02:00:10.366Z,0.00
2019-04-25T02:01:10.560Z,0.00
2019-04-25T02:02:10.742Z,0.00
2019-04-25T02:03:10.928Z,0.00
2019-04-25T02:04:11.110Z,0.00
2019-04-25T02:05:11.297Z,0.00
2019-04-25T02:06:11.480Z,0.00
2019-04-25T02:07:13.374Z,0.00
2019-04-25T02:08:11.851Z,0.00
2019-04-25T02:09:13.526Z,0.00
2019-04-25T02:10:13.458Z,0.00
2019-04-25T02:11:14.115Z,0.00
2019-04-25T02:12:13.527Z,0.00
2019-04-25T02:13:13.931Z,0.00
2019-04-25T02:14:13.712Z,0.00
2019-04-25T02:15:13.741Z,0.00
2019-04-25T02:16:14.228Z,0.00
2019-04-25T02:17:14.131Z,0.00
2019-04-25T02:18:13.778Z,0.00
2019-04-25T02:19:14.515Z,0.00
2019-04-25T02:20:14.124Z,0.00
2019-04-25T02:21:14.276Z,0.00
2019-04-25T02:22:14.629Z,0.00
2019-04-25T02:23:14.650Z,0.00
2019-04-25T02:24:14.833Z,0.00
2019-04-25T02:25:15.015Z,0.00
2019-04-25T02:26:16.764Z,0.00
2019-04-25T02:27:15.382Z,0.00
2019-04-25T02:28:15.870Z,0.00
2019-04-25T02:29:15.762Z,0.00
2019-04-25T02:30:15.953Z,0.00
2019-04-25T02:31:18.419Z,0.00
2019-04-25T02:32:16.323Z,0.00
2019-04-25T02:33:16.517Z,0.00
2019-04-25T02:34:18.201Z,0.00
2019-04-25T02:35:16.880Z,0.00
2019-04-25T02:36:17.076Z,0.00
2019-04-25T02:37:17.251Z,0.00
2019-04-25T02:38:17.456Z,0.00
2019-04-25T02:39:17.671Z,0.00
2019-04-25T02:40:17.813Z,0.00
2019-04-25T02:41:18.003Z,0.00
2019-04-25T02:42:18.182Z,0.00
2019-04-25T02:43:18.362Z,0.00
2019-04-25T02:44:18.550Z,0.00
2019-04-25T02:45:18.732Z,0.00
2019-04-25T02:46:18.916Z,0.00
2019-04-25T02:47:19.101Z,0.00
2019-04-25T02:48:19.288Z,0.00
2019-04-25T02:49:29.309Z,0.00
2019-04-25T02:50:19.662Z,0.00
2019-04-25T02:51:19.848Z,0.00
2019-04-25T02:52:20.023Z,0.00
2019-04-25T02:53:20.201Z,0.00
2019-04-25T02:54:20.406Z,0.00
2019-04-25T02:55:31.140Z,0.00
2019-04-25T02:56:33.318Z,0.00
2019-04-25T02:57:20.936Z,0.00
2019-04-25T02:58:21.125Z,0.00
2019-04-25T02:59:21.319Z,0.00
2019-04-25T03:00:21.494Z,0.00
2019-04-25T03:01:25.338Z,0.00
2019-04-25T03:02:21.864Z,0.00
2019-04-25T03:03:22.045Z,0.00
2019-04-25T03:04:24.050Z,0.00
2019-04-25T03:05:22.415Z,0.00
2019-04-25T03:06:24.653Z,0.00
2019-04-25T03:07:24.530Z,0.00
2019-04-25T03:08:24.360Z,0.00
2019-04-25T03:09:24.963Z,0.00
2019-04-25T03:10:26.651Z,0.00
2019-04-25T03:11:24.488Z,0.00
2019-04-25T03:12:30.560Z,0.00
2019-04-25T03:13:24.587Z,0.00
2019-04-25T03:14:26.425Z,0.00
2019-04-25T03:15:24.477Z,0.00
2019-04-25T03:16:25.147Z,0.00
2019-04-25T03:17:24.913Z,0.00
2019-04-25T03:18:24.978Z,0.00
2019-04-25T03:19:26.298Z,0.00
2019-04-25T03:20:25.203Z,0.00
2019-04-25T03:21:25.393Z,0.00
2019-04-25T03:22:26.658Z,0.00
2019-04-25T03:23:25.755Z,0.00
2019-04-25T03:24:25.944Z,0.00
2019-04-25T03:25:26.123Z,0.00
2019-04-25T03:26:37.720Z,0.00
2019-04-25T03:27:26.489Z,0.00
2019-04-25T03:28:26.673Z,0.00
2019-04-25T03:29:26.855Z,0.00
2019-04-25T03:30:27.039Z,0.00
2019-04-25T03:31:27.440Z,0.00
2019-04-25T03:32:28.506Z,0.00
2019-04-25T03:33:27.591Z,0.00
2019-04-25T03:34:27.784Z,0.00
2019-04-25T03:35:27.967Z,0.00
2019-04-25T03:36:28.150Z,0.00
2019-04-25T03:37:28.333Z,0.00
2019-04-25T03:38:28.509Z,0.00
2019-04-25T03:39:28.694Z,0.00
2019-04-25T03:40:28.882Z,0.00
2019-04-25T03:41:29.063Z,0.00
2019-04-25T03:42:29.255Z,0.00
2019-04-25T03:43:29.444Z,0.00
2019-04-25T03:44:29.626Z,0.00
2019-04-25T03:45:29.813Z,0.00
2019-04-25T03:46:30.002Z,0.00
2019-04-25T03:47:30.175Z,0.00
2019-04-25T03:48:30.359Z,0.00
2019-04-25T03:49:30.546Z,0.00
2019-04-25T03:50:30.735Z,0.00
2019-04-25T03:51:30.913Z,0.00
2019-04-25T03:52:31.097Z,5.63
2019-04-25T03:53:31.282Z,5.63
2019-04-25T03:54:31.473Z,5.63
2019-04-25T03:55:31.653Z,5.63
2019-04-25T03:56:33.273Z,5.63
2019-04-25T03:57:33.135Z,11.25
2019-04-25T03:58:33.679Z,11.25
2019-04-25T03:59:33.634Z,11.25
2019-04-25T04:00:34.460Z,11.25
2019-04-25T04:01:34.269Z,16.88
2019-04-25T04:02:34.409Z,16.88
2019-04-25T04:03:33.956Z,16.88
2019-04-25T04:04:33.596Z,22.50
2019-04-25T04:05:34.533Z,22.50
2019-04-25T04:06:34.012Z,28.13
2019-04-25T04:07:33.890Z,28.13
2019-04-25T04:08:35.691Z,33.75
2019-04-25T04:09:34.258Z,33.75
2019-04-25T04:10:34.451Z,39.38
2019-04-25T04:11:34.639Z,45.00
2019-04-25T04:12:35.590Z,45.00
2019-04-25T04:13:35.011Z,50.63
2019-04-25T04:14:35.197Z,61.88
2019-04-25T04:15:35.383Z,67.50
2019-04-25T04:16:35.562Z,73.13
2019-04-25T04:17:35.754Z,73.13
2019-04-25T04:18:35.935Z,73.13
2019-04-25T04:19:36.120Z,73.13
2019-04-25T04:20:36.299Z,78.75
2019-04-25T04:21:36.502Z,84.38
2019-04-25T04:22:36.671Z,95.63
2019-04-25T04:23:36.851Z,95.63
2019-04-25T04:24:37.040Z,106.88
2019-04-25T04:25:37.230Z,118.13
2019-04-25T04:26:37.411Z,123.75
2019-04-25T04:27:37.604Z,140.63
2019-04-25T04:28:37.790Z,157.50
2019-04-25T04:29:37.973Z,157.50
2019-04-25T04:30:38.157Z,157.50
2019-04-25T04:31:38.348Z,168.75
2019-04-25T04:32:38.532Z,174.38
2019-04-25T04:33:38.713Z,174.38
2019-04-25T04:34:38.896Z,174.38
2019-04-25T04:35:39.083Z,196.88
2019-04-25T04:36:39.270Z,191.25
2019-04-25T04:37:39.448Z,213.75
2019-04-25T04:38:39.671Z,225.00
2019-04-25T04:39:39.815Z,258.75
2019-04-25T04:40:40.003Z,326.25
2019-04-25T04:41:40.182Z,326.25
2019-04-25T04:42:40.378Z,286.88
2019-04-25T04:43:40.552Z,292.50
2019-04-25T04:44:40.743Z,315.00
2019-04-25T04:45:43.143Z,303.75
2019-04-25T04:46:41.104Z,286.88
2019-04-25T04:47:41.302Z,281.25
2019-04-25T04:48:41.487Z,275.63
2019-04-25T04:49:41.668Z,253.13
2019-04-25T04:50:43.141Z,253.13
2019-04-25T04:51:42.038Z,270.00
2019-04-25T04:52:43.902Z,326.25
2019-04-25T04:53:43.830Z,360.00
2019-04-25T04:54:43.913Z,500.63
2019-04-25T04:55:43.150Z,967.50
2019-04-25T04:56:43.814Z,911.25
2019-04-25T04:57:44.831Z,826.88
2019-04-25T04:58:43.385Z,725.63
2019-04-25T04:59:43.932Z,646.88
2019-04-25T05:00:43.866Z,708.75
2019-04-25T05:01:44.965Z,1417.50
2019-04-25T05:02:44.098Z,1659.38
2019-04-25T05:03:44.283Z,1203.75
2019-04-25T05:04:44.470Z,1153.13
2019-04-25T05:05:44.657Z,1288.13
2019-04-25T05:06:44.844Z,1563.75
2019-04-25T05:07:45.029Z,1603.13
2019-04-25T05:08:45.216Z,1816.88
2019-04-25T05:09:45.404Z,1485.00
2019-04-25T05:10:45.587Z,1040.63
2019-04-25T05:11:45.796Z,990.00
2019-04-25T05:12:45.982Z,1158.75
2019-04-25T05:13:46.172Z,1462.50
2019-04-25T05:14:46.359Z,1456.88
2019-04-25T05:15:46.555Z,1428.75
2019-04-25T05:16:49.423Z,2295.00
2019-04-25T05:17:46.924Z,2396.25
2019-04-25T05:18:47.119Z,2401.88
2019-04-25T05:19:47.312Z,2143.13
2019-04-25T05:20:47.510Z,1710.00
2019-04-25T05:21:47.687Z,2025.00
2019-04-25T05:22:47.877Z,2486.25
2019-04-25T05:23:48.074Z,2593.13
2019-04-25T05:24:48.266Z,2587.50
2019-04-25T05:25:48.467Z,2621.25
2019-04-25T05:26:48.652Z,2801.25
2019-04-25T05:27:59.632Z,2851.88
2019-04-25T05:28:49.042Z,2868.75
2019-04-25T05:29:49.229Z,2896.88
2019-04-25T05:30:49.419Z,2925.00
2019-04-25T05:31:49.611Z,2941.88
2019-04-25T05:32:49.831Z,3009.38
2019-04-25T05:33:50.011Z,3026.25
2019-04-25T05:34:50.202Z,3065.63
2019-04-25T05:35:50.395Z,3093.75
2019-04-25T05:36:50.588Z,3110.63
2019-04-25T05:37:50.797Z,3105.00
2019-04-25T05:38:50.983Z,3133.13
2019-04-25T05:39:51.189Z,3178.13
2019-04-25T05:40:51.366Z,3200.63
2019-04-25T05:41:51.556Z,3223.13
2019-04-25T05:42:51.755Z,3256.88
2019-04-25T05:43:53.529Z,3296.25
2019-04-25T05:44:52.144Z,3346.88
2019-04-25T05:45:52.341Z,3386.25
2019-04-25T05:46:53.998Z,3408.75
2019-04-25T05:47:54.083Z,3420.00
2019-04-25T05:48:53.774Z,3436.88
2019-04-25T05:49:54.159Z,3465.00
2019-04-25T05:50:53.775Z,3498.75
2019-04-25T05:51:53.931Z,3532.50
2019-04-25T05:52:54.171Z,3549.38
2019-04-25T05:53:55.165Z,3571.88
2019-04-25T05:54:54.161Z,3594.38
2019-04-25T05:55:54.315Z,3616.88
2019-04-25T05:56:54.514Z,3645.00
2019-04-25T05:57:54.712Z,3661.88
2019-04-25T05:58:54.909Z,3690.00
2019-04-25T05:59:55.114Z,3701.25
2019-04-25T06:00:55.315Z,3740.63
2019-04-25T06:01:55.511Z,3746.25
2019-04-25T06:02:55.706Z,3735.00
2019-04-25T06:03:55.902Z,3690.00
2019-04-25T06:04:56.104Z,3684.38
2019-04-25T06:05:56.312Z,3712.50
2019-04-25T06:06:56.527Z,3746.25
2019-04-25T06:07:56.693Z,3791.25
2019-04-25T06:08:56.893Z,3819.38
2019-04-25T06:09:57.083Z,3836.25
2019-04-25T06:10:57.282Z,3875.63
2019-04-25T06:11:57.473Z,3931.88
2019-04-25T06:12:57.678Z,3999.38
2019-04-25T06:14:00.214Z,4061.25
2019-04-25T06:14:58.077Z,4083.75
2019-04-25T06:15:58.275Z,4066.88
2019-04-25T06:16:58.471Z,4050.00
2019-04-25T06:17:58.668Z,4050.00
2019-04-25T06:19:11.289Z,4027.50
2019-04-25T06:19:59.064Z,3988.13
2019-04-25T06:20:59.265Z,4005.00
2019-04-25T06:21:59.467Z,4021.88
2019-04-25T06:22:59.664Z,4050.00
2019-04-25T06:23:59.861Z,4095.00
2019-04-25T06:25:00.058Z,4156.88
2019-04-25T06:26:16.013Z,4235.63
2019-04-25T06:27:00.474Z,4291.88
2019-04-25T06:28:00.674Z,4365.00
2019-04-25T06:29:00.905Z,4398.75
2019-04-25T06:30:01.129Z,4404.38
2019-04-25T06:31:01.301Z,4432.50
2019-04-25T06:32:06.582Z,4477.50
2019-04-25T06:33:03.217Z,4516.88
2019-04-25T06:34:01.900Z,4561.88
2019-04-25T06:35:02.097Z,4590.00
2019-04-25T06:36:04.041Z,4595.63
2019-04-25T06:37:04.390Z,4618.13
2019-04-25T06:38:03.584Z,4651.88
2019-04-25T06:39:04.078Z,4685.63
2019-04-25T06:40:03.488Z,4713.75
2019-04-25T06:41:03.611Z,4736.25
2019-04-25T06:42:04.021Z,4753.13
2019-04-25T06:43:03.705Z,4758.75
2019-04-25T06:44:04.103Z,4798.13
2019-04-25T06:45:04.105Z,4843.13
2019-04-25T06:46:04.300Z,4882.50
2019-04-25T06:47:04.502Z,4910.63
2019-04-25T06:48:04.697Z,4950.00
2019-04-25T06:49:04.901Z,4983.75
2019-04-25T06:50:05.099Z,4989.38
2019-04-25T06:51:05.304Z,5034.38
2019-04-25T06:52:05.500Z,5085.00
2019-04-25T06:53:05.688Z,5096.25
2019-04-25T06:54:05.889Z,5130.00
2019-04-25T06:55:06.088Z,5152.50
2019-04-25T06:56:06.290Z,5169.38
2019-04-25T06:57:06.491Z,5220.00
2019-04-25T06:58:12.054Z,5276.25
2019-04-25T06:59:06.891Z,5298.75
2019-04-25T07:00:07.093Z,5338.13
2019-04-25T07:01:07.298Z,5338.13
2019-04-25T07:02:07.492Z,5383.13
2019-04-25T07:03:07.690Z,5405.63
2019-04-25T07:04:07.882Z,5428.13
2019-04-25T07:05:08.083Z,5439.38
2019-04-25T07:06:08.307Z,5467.50
2019-04-25T07:07:12.113Z,5518.13
2019-04-25T07:08:08.682Z,5551.88
2019-04-25T07:09:08.883Z,5591.25
2019-04-25T07:10:09.096Z,5585.63
2019-04-25T07:11:09.295Z,5613.75
2019-04-25T07:12:09.482Z,5641.88
2019-04-25T07:13:09.692Z,5625.00
2019-04-25T07:14:09.891Z,5613.75
2019-04-25T07:15:10.100Z,5568.75
2019-04-25T07:16:10.306Z,5568.75
2019-04-25T07:17:10.503Z,5613.75
2019-04-25T07:18:10.706Z,5653.13
2019-04-25T07:19:10.907Z,5670.00
2019-04-25T07:20:11.103Z,5675.63
2019-04-25T07:21:11.329Z,5686.88
2019-04-25T07:22:11.523Z,5636.25
2019-04-25T07:23:11.738Z,5608.13
2019-04-25T07:24:11.929Z,5613.75
2019-04-25T07:25:13.189Z,5596.88
2019-04-25T07:26:13.509Z,5591.25
2019-04-25T07:27:13.744Z,5608.13
2019-04-25T07:28:23.870Z,5625.00
2019-04-25T07:29:13.431Z,5630.63
2019-04-25T07:30:13.535Z,5698.13
2019-04-25T07:31:13.442Z,5776.88
2019-04-25T07:32:14.454Z,5827.50
2019-04-25T07:33:13.891Z,5866.88
2019-04-25T07:34:14.005Z,5900.63
2019-04-25T07:35:14.209Z,5911.88
2019-04-25T07:36:15.621Z,5917.50
2019-04-25T07:37:14.612Z,5951.25
2019-04-25T07:38:14.825Z,5968.13
2019-04-25T07:39:15.027Z,6030.00
2019-04-25T07:40:15.231Z,6091.88
2019-04-25T07:41:16.384Z,6142.50
2019-04-25T07:42:15.638Z,6204.38
2019-04-25T07:43:15.839Z,6266.25
2019-04-25T07:44:16.044Z,6305.63
2019-04-25T07:45:16.336Z,6339.38
2019-04-25T07:46:16.444Z,6333.75
2019-04-25T07:47:16.644Z,6316.88
2019-04-25T07:48:16.866Z,6238.13
2019-04-25T07:49:17.039Z,6187.50
2019-04-25T07:50:17.246Z,6148.13
2019-04-25T07:51:17.442Z,6176.25
2019-04-25T07:52:17.654Z,6170.63
2019-04-25T07:53:17.863Z,6153.75
2019-04-25T07:54:18.052Z,6193.13
2019-04-25T07:55:18.254Z,6305.63
2019-04-25T07:56:18.459Z,6361.88
2019-04-25T07:57:18.660Z,6288.75
2019-04-25T07:58:18.862Z,6176.25
2019-04-25T07:59:19.061Z,6052.50
2019-04-25T08:00:19.277Z,5962.50
2019-04-25T08:01:19.466Z,5923.13
2019-04-25T08:02:19.665Z,5872.50
2019-04-25T08:03:19.872Z,5844.38
2019-04-25T08:04:20.078Z,5883.75
2019-04-25T08:05:20.283Z,5990.63
2019-04-25T08:06:22.102Z,6080.63
2019-04-25T08:07:20.682Z,6097.50
2019-04-25T08:08:20.882Z,6142.50
2019-04-25T08:09:21.082Z,6221.25
2019-04-25T08:10:21.281Z,6283.13
2019-04-25T08:11:21.487Z,6294.38
2019-04-25T08:12:21.683Z,6288.75
2019-04-25T08:13:23.381Z,6288.75
2019-04-25T08:14:22.089Z,6311.25
2019-04-25T08:15:23.590Z,6333.75
2019-04-25T08:16:23.338Z,6350.63
2019-04-25T08:17:24.009Z,6316.88
2019-04-25T08:18:23.889Z,6300.00
2019-04-25T08:19:23.582Z,6294.38
2019-04-25T08:20:23.669Z,6300.00
2019-04-25T08:21:23.934Z,6345.00
2019-04-25T08:22:23.696Z,6390.00
2019-04-25T08:23:23.899Z,6412.50
2019-04-25T08:24:24.100Z,6395.63
2019-04-25T08:25:24.301Z,6395.63
2019-04-25T08:26:24.501Z,6412.50
2019-04-25T08:27:24.704Z,6429.38
2019-04-25T08:28:24.908Z,6451.88
2019-04-25T08:29:25.555Z,6440.63
2019-04-25T08:30:25.311Z,6435.00
2019-04-25T08:31:25.520Z,6446.25
2019-04-25T08:32:25.719Z,6491.25
2019-04-25T08:33:25.923Z,6547.50
2019-04-25T08:34:26.123Z,6541.88
2019-04-25T08:35:26.338Z,6586.88
2019-04-25T08:36:26.534Z,6603.75
2019-04-25T08:37:26.737Z,6592.50
2019-04-25T08:38:26.941Z,6575.63
2019-04-25T08:39:27.141Z,6564.38
2019-04-25T08:40:27.352Z,6536.25
2019-04-25T08:41:27.569Z,6547.50
2019-04-25T08:42:27.763Z,6513.75
2019-04-25T08:43:27.967Z,6508.13
2019-04-25T08:44:28.173Z,6525.00
2019-04-25T08:45:28.372Z,6536.25
2019-04-25T08:46:28.594Z,6541.88
2019-04-25T08:47:28.804Z,6553.13
2019-04-25T08:48:29.004Z,6547.50
2019-04-25T08:49:29.207Z,6558.75
2019-04-25T08:50:33.246Z,6508.13
2019-04-25T08:51:29.624Z,6508.13
2019-04-25T08:52:29.821Z,6468.75
2019-04-25T08:53:30.026Z,6502.50
2019-04-25T08:54:31.027Z,6502.50
2019-04-25T08:55:31.362Z,6491.25
2019-04-25T08:56:31.205Z,6446.25
2019-04-25T08:57:31.889Z,6440.63
2019-04-25T08:58:31.300Z,6440.63
2019-04-25T08:59:37.368Z,6457.50
2019-04-25T09:00:31.708Z,6435.00
2019-04-25T09:01:34.212Z,6423.75
2019-04-25T09:02:34.465Z,6423.75
2019-04-25T09:03:32.923Z,6367.50
2019-04-25T09:04:33.174Z,6328.13
2019-04-25T09:05:33.374Z,6271.88
2019-04-25T09:06:33.310Z,6226.88
2019-04-25T09:07:35.452Z,6181.88
2019-04-25T09:08:35.609Z,6131.25
2019-04-25T09:09:35.340Z,6046.88
2019-04-25T09:10:35.768Z,6007.50
2019-04-25T09:11:36.629Z,6007.50
2019-04-25T09:12:35.532Z,6046.88
2019-04-25T09:13:35.813Z,6041.25
2019-04-25T09:14:36.284Z,6069.38
2019-04-25T09:15:36.540Z,6125.63
2019-04-25T09:16:35.819Z,6198.75
2019-04-25T09:17:35.818Z,6255.00
2019-04-25T09:18:36.953Z,6316.88
2019-04-25T09:19:36.213Z,6361.88
2019-04-25T09:20:39.340Z,6390.00
2019-04-25T09:21:36.563Z,6384.38
2019-04-25T09:22:37.394Z,6378.75
2019-04-25T09:23:36.536Z,6361.88
2019-04-25T09:24:37.731Z,6356.25
2019-04-25T09:25:36.835Z,6345.00
2019-04-25T09:26:38.105Z,6345.00
2019-04-25T09:27:39.311Z,6288.75
2019-04-25T09:28:38.964Z,6288.75
2019-04-25T09:29:37.471Z,6283.13
2019-04-25T09:30:38.424Z,6249.38
2019-04-25T09:31:39.316Z,6198.75
2019-04-25T09:32:38.099Z,6153.75
2019-04-25T09:33:39.088Z,5996.25
2019-04-25T09:34:38.520Z,5906.25
2019-04-25T09:35:39.565Z,5850.00
2019-04-25T09:36:39.909Z,5805.00
2019-04-25T09:37:39.118Z,5782.50
2019-04-25T09:38:39.322Z,5771.25
2019-04-25T09:39:39.527Z,5816.25
2019-04-25T09:40:39.728Z,5895.00
2019-04-25T09:41:39.934Z,5956.88
2019-04-25T09:42:40.142Z,6046.88
2019-04-25T09:43:40.368Z,6091.88
2019-04-25T09:44:40.560Z,6114.38
2019-04-25T09:45:41.559Z,6108.75
2019-04-25T09:46:41.834Z,6103.13
2019-04-25T09:47:41.326Z,6041.25
2019-04-25T09:48:42.330Z,5990.63
2019-04-25T09:49:41.617Z,5985.00
2019-04-25T09:50:41.807Z,5985.00
2019-04-25T09:51:42.784Z,5951.25
2019-04-25T09:52:44.042Z,5945.63
2019-04-25T09:53:45.923Z,5765.63
2019-04-25T09:54:44.131Z,4781.25
2019-04-25T09:55:44.113Z,5934.38
2019-04-25T09:56:44.837Z,5861.25
2019-04-25T09:57:44.612Z,5799.38
2019-04-25T09:58:44.339Z,5698.13
2019-04-25T09:59:44.927Z,5563.13
2019-04-25T10:00:44.831Z,5135.63
2019-04-25T10:01:44.880Z,5332.50
2019-04-25T10:02:44.635Z,5371.88
2019-04-25T10:03:44.806Z,5265.00
2019-04-25T10:04:45.489Z,5191.88
2019-04-25T10:05:44.856Z,5118.75
2019-04-25T10:06:46.003Z,5028.75
2019-04-25T10:07:46.286Z,4972.50
2019-04-25T10:08:46.307Z,4933.13
2019-04-25T10:09:46.238Z,4961.25
2019-04-25T10:10:46.711Z,4978.13
2019-04-25T10:11:46.577Z,5051.25
2019-04-25T10:12:46.292Z,5079.38
2019-04-25T10:13:46.605Z,5163.75
2019-04-25T10:14:47.938Z,5248.13
2019-04-25T10:15:47.865Z,5293.13
2019-04-25T10:16:47.310Z,5445.00
2019-04-25T10:17:47.314Z,5546.25
2019-04-25T10:18:47.642Z,5596.88
2019-04-25T10:19:48.006Z,5647.50
2019-04-25T10:20:47.927Z,5698.13
2019-04-25T10:21:48.126Z,5748.75
2019-04-25T10:22:48.329Z,4989.38
2019-04-25T10:23:51.116Z,5636.25
2019-04-25T10:24:59.728Z,5613.75
2019-04-25T10:25:48.935Z,5366.25
2019-04-25T10:26:49.140Z,5242.50
2019-04-25T10:27:49.434Z,5619.38
2019-04-25T10:28:49.627Z,4573.13
2019-04-25T10:29:53.656Z,4871.25
2019-04-25T10:30:49.969Z,4831.88
2019-04-25T10:31:50.168Z,5433.75
2019-04-25T10:32:50.793Z,5388.75
2019-04-25T10:33:50.578Z,5118.75
2019-04-25T10:34:51.656Z,5113.13
2019-04-25T10:35:58.357Z,5011.88
2019-04-25T10:36:51.188Z,4972.50
2019-04-25T10:37:51.388Z,4865.63
2019-04-25T10:39:05.133Z,5231.25
2019-04-25T10:39:51.788Z,5332.50
2019-04-25T10:40:53.597Z,3543.75
2019-04-25T10:41:53.967Z,4691.25
2019-04-25T10:42:53.360Z,3723.75
2019-04-25T10:43:54.647Z,5743.13
2019-04-25T10:44:54.460Z,3600.00
2019-04-25T10:45:54.917Z,5754.38
2019-04-25T10:46:54.600Z,2525.63
2019-04-25T10:47:55.296Z,2126.25
2019-04-25T10:48:55.881Z,3465.00
2019-04-25T10:49:55.446Z,3791.25
2019-04-25T10:50:55.769Z,3937.50
2019-04-25T10:51:54.255Z,3240.00
2019-04-25T10:52:54.454Z,1963.13
2019-04-25T10:53:55.120Z,1800.00
2019-04-25T10:54:54.859Z,2092.50
2019-04-25T10:55:55.068Z,2025.00
2019-04-25T10:56:55.260Z,2148.75
2019-04-25T10:57:56.387Z,2244.38
2019-04-25T10:58:55.659Z,1946.25
2019-04-25T11:00:06.532Z,2407.50
2019-04-25T11:00:56.060Z,1850.63
2019-04-25T11:01:56.258Z,1766.25
2019-04-25T11:02:56.464Z,1755.00
2019-04-25T11:03:56.661Z,1777.50
2019-04-25T11:04:56.865Z,1788.75
2019-04-25T11:05:57.062Z,1850.63
2019-04-25T11:06:57.259Z,1867.50
2019-04-25T11:07:57.465Z,1850.63
2019-04-25T11:08:57.657Z,1890.00
2019-04-25T11:09:57.858Z,1935.00
2019-04-25T11:10:58.058Z,1901.25
2019-04-25T11:11:58.262Z,1873.13
2019-04-25T11:12:58.466Z,1901.25
2019-04-25T11:13:58.657Z,1963.13
2019-04-25T11:14:58.854Z,1980.00
2019-04-25T11:15:59.060Z,1305.00
2019-04-25T11:16:59.257Z,2058.75
2019-04-25T11:17:59.465Z,2103.75
2019-04-25T11:18:59.663Z,2221.88
2019-04-25T11:19:59.862Z,2351.25
2019-04-25T11:21:00.064Z,2283.75
2019-04-25T11:22:00.267Z,2328.75
2019-04-25T11:23:00.469Z,2283.75
2019-04-25T11:24:00.673Z,2272.50
2019-04-25T11:25:00.879Z,2401.88
2019-04-25T11:26:01.080Z,2604.38
2019-04-25T11:27:01.271Z,2255.63
2019-04-25T11:28:01.470Z,2216.25
2019-04-25T11:29:01.699Z,2137.50
2019-04-25T11:30:10.480Z,2075.63
2019-04-25T11:31:02.079Z,1985.63
2019-04-25T11:32:02.276Z,2058.75
2019-04-25T11:33:03.628Z,1946.25
2019-04-25T11:34:03.579Z,1985.63
2019-04-25T11:35:03.510Z,1923.75
2019-04-25T11:36:04.207Z,1946.25
2019-04-25T11:37:03.648Z,1878.75
2019-04-25T11:38:03.603Z,1884.38
2019-04-25T11:39:04.128Z,1861.88
2019-04-25T11:40:04.359Z,1901.25
2019-04-25T11:41:04.046Z,1963.13
2019-04-25T11:42:04.240Z,1963.13
2019-04-25T11:43:04.444Z,1991.25
2019-04-25T11:44:04.646Z,1957.50
2019-04-25T11:45:05.926Z,1980.00
2019-04-25T11:46:05.049Z,1951.88
2019-04-25T11:47:06.868Z,1980.00
2019-04-25T11:48:05.455Z,1878.75
2019-04-25T11:49:05.653Z,1901.25
2019-04-25T11:50:05.852Z,1845.00
2019-04-25T11:51:06.047Z,1856.25
2019-04-25T11:52:06.257Z,1850.63
2019-04-25T11:53:06.451Z,1850.63
2019-04-25T11:54:06.650Z,1845.00
2019-04-25T11:55:06.848Z,1800.00
2019-04-25T11:56:07.062Z,1800.00
2019-04-25T11:57:07.257Z,1783.13
2019-04-25T11:58:07.491Z,1783.13
2019-04-25T11:59:07.686Z,1777.50
2019-04-25T12:00:07.910Z,1771.88
2019-04-25T12:01:08.081Z,1766.25
2019-04-25T12:02:08.294Z,1777.50
2019-04-25T12:03:08.493Z,1811.25
2019-04-25T12:04:08.666Z,1800.00
2019-04-25T12:05:08.877Z,1794.38
2019-04-25T12:06:11.138Z,1811.25
2019-04-25T12:07:09.612Z,1771.88
2019-04-25T12:08:09.471Z,1726.88
2019-04-25T12:09:09.741Z,1755.00
2019-04-25T12:10:09.873Z,1777.50
2019-04-25T12:11:10.067Z,1755.00
2019-04-25T12:12:10.326Z,1732.50
2019-04-25T12:13:10.497Z,1693.13
2019-04-25T12:14:10.687Z,1659.38
2019-04-25T12:15:10.887Z,1653.75
2019-04-25T12:16:11.085Z,1608.75
2019-04-25T12:17:11.282Z,1575.00
2019-04-25T12:18:11.488Z,1558.13
2019-04-25T12:19:11.705Z,1563.75
2019-04-25T12:20:11.870Z,1563.75
2019-04-25T12:21:13.610Z,1580.63
2019-04-25T12:22:13.494Z,1597.50
2019-04-25T12:23:14.287Z,1586.25
2019-04-25T12:24:13.702Z,1552.50
2019-04-25T12:25:13.447Z,1530.00
2019-04-25T12:26:14.273Z,1496.25
2019-04-25T12:27:13.272Z,1451.25
2019-04-25T12:28:14.176Z,1411.88
2019-04-25T12:29:14.328Z,1378.13
2019-04-25T12:30:14.029Z,1344.38
2019-04-25T12:31:14.835Z,1305.00
2019-04-25T12:32:14.255Z,1282.50
2019-04-25T12:33:20.915Z,1260.00